Terminal Aerodrome Forecast
Issued by NWS Mt. Holly, NJ

Home | Current Version | Previous Version | Text Only | Print | Product List | Glossary On
Versions: 1 2 3 4 5 6 7 8 9 10 11 12 13 14 15 16 17 18 19 20 21 22 23 24 25 26
000
FTUS41 KPHI 312320
TAFACY
TAF
KACY 312320Z 0100/0124 VRB06KT P6SM SCT250
      TEMPO 0104/0107 3SM BR
     FM010700 00000KT 2SM BR FEW250
     FM011200 VRB04KT 5SM BR SCT250
     FM011400 11009KT P6SM BKN250=

USA.gov is the U.S. government's official web portal to all federal, state and local government web resources and services.